Time;durP1;ratioP1;P1;durP2;ratioP2;P2;SDS_P1;SDS_P2;PMS_P1;PMS_P2;Temp;Humidity;BMP_temperature;BMP_pressure;BME280_temperature;BME280_humidity;BME280_pressure;Samples;Min_cycle;Max_cycle;Signal;HPM_P1;HPM_P2
2023/03/22 00:00:15;;;;;;;10.63;5.50;;;;;;;;;;4996921;28;20026;-75
2023/03/22 00:02:44;;;;;;;10.40;6.70;;;;;;;;;;4997781;28;20121;-75
2023/03/22 00:05:10;;;;;;;11.87;5.90;;;;;;;;;;5005139;28;20029;-75
2023/03/22 00:07:36;;;;;;;10.13;6.37;;;;;;;;;;4993072;28;20511;-75
2023/03/22 00:10:02;;;;;;;14.03;6.90;;;;;;;;;;5004729;28;20022;-75
2023/03/22 00:12:28;;;;;;;9.97;6.20;;;;;;;;;;5005296;28;20052;-75
2023/03/22 00:14:54;;;;;;;12.13;7.00;;;;;;;;;;5000571;28;20424;-75
2023/03/22 00:17:21;;;;;;;10.00;6.40;;;;;;;;;;5018194;28;20037;-75
2023/03/22 00:19:48;;;;;;;10.90;7.23;;;;;;;;;;5002304;28;20041;-75
2023/03/22 00:22:15;;;;;;;13.63;6.77;;;;;;;;;;5012238;28;20054;-75
2023/03/22 00:24:40;;;;;;;12.40;7.20;;;;;;;;;;4998006;28;20022;-76
2023/03/22 00:27:06;;;;;;;16.33;7.20;;;;;;;;;;5018028;28;20095;-75
2023/03/22 00:29:32;;;;;;;12.63;7.03;;;;;;;;;;5000075;28;20031;-76
2023/03/22 00:32:01;;;;;;;10.70;7.13;;;;;;;;;;5001950;28;20049;-75
2023/03/22 00:34:30;;;;;;;10.80;6.80;;;;;;;;;;5011842;28;20429;-75
2023/03/22 00:36:56;;;;;;;15.00;7.37;;;;;;;;;;5020503;28;20033;-76
2023/03/22 00:39:22;;;;;;;9.83;6.80;;;;;;;;;;5004564;28;20018;-75
2023/03/22 00:41:48;;;;;;;11.67;7.43;;;;;;;;;;4990637;28;20154;-75
2023/03/22 00:44:14;;;;;;;10.43;7.00;;;;;;;;;;5004306;28;20057;-75
2023/03/22 00:46:40;;;;;;;13.50;7.80;;;;;;;;;;5008007;28;20127;-75
2023/03/22 00:49:06;;;;;;;10.80;7.30;;;;;;;;;;5012622;28;20040;-76
2023/03/22 00:51:32;;;;;;;9.40;7.27;;;;;;;;;;5006374;28;20431;-75
2023/03/22 00:53:58;;;;;;;11.70;7.00;;;;;;;;;;5012364;28;20038;-75
2023/03/22 00:56:27;;;;;;;15.40;7.80;;;;;;;;;;5010241;28;20034;-75
2023/03/22 00:58:56;;;;;;;14.10;7.87;;;;;;;;;;4994368;28;20439;-75
2023/03/22 01:01:22;;;;;;;13.27;8.30;;;;;;;;;;5009524;28;20033;-75
2023/03/22 01:03:50;;;;;;;15.37;8.50;;;;;;;;;;5010111;28;20033;-75
2023/03/22 01:06:16;;;;;;;13.53;7.90;;;;;;;;;;5010817;28;20597;-75
2023/03/22 01:08:42;;;;;;;16.00;7.33;;;;;;;;;;4994327;28;20026;-75
2023/03/22 01:11:09;;;;;;;14.03;7.70;;;;;;;;;;5009597;28;20624;-75
2023/03/22 01:13:40;;;;;;;17.00;8.80;;;;;;;;;;5011242;28;20139;-75
2023/03/22 01:16:06;;;;;;;10.20;7.77;;;;;;;;;;4989382;28;20048;-74
2023/03/22 01:18:33;;;;;;;14.23;8.53;;;;;;;;;;5008612;28;20042;-75
2023/03/22 01:20:59;;;;;;;15.57;8.50;;;;;;;;;;5011061;28;21552;-75
2023/03/22 01:23:25;;;;;;;14.37;8.03;;;;;;;;;;5012118;28;20088;-74
2023/03/22 01:25:53;;;;;;;14.90;8.37;;;;;;;;;;4994233;28;20370;-75
2023/03/22 01:28:19;;;;;;;14.93;7.97;;;;;;;;;;4994678;28;20040;-75
2023/03/22 01:30:45;;;;;;;11.40;7.90;;;;;;;;;;4994552;28;20037;-74
2023/03/22 01:33:11;;;;;;;11.57;8.23;;;;;;;;;;5011135;28;21539;-75
2023/03/22 01:35:38;;;;;;;12.37;7.93;;;;;;;;;;4994071;28;20030;-74
2023/03/22 01:38:04;;;;;;;13.73;8.23;;;;;;;;;;4995911;28;20033;-75
2023/03/22 01:40:33;;;;;;;11.30;7.90;;;;;;;;;;4998089;28;20418;-77
2023/03/22 01:42:59;;;;;;;11.63;8.90;;;;;;;;;;5010871;28;20053;-76
2023/03/22 01:45:28;;;;;;;12.27;7.97;;;;;;;;;;4994724;28;20057;-74
2023/03/22 01:47:59;;;;;;;19.67;8.83;;;;;;;;;;5008691;28;20100;-75
2023/03/22 01:50:27;;;;;;;12.77;8.70;;;;;;;;;;5009814;28;20999;-75
2023/03/22 01:52:55;;;;;;;14.53;8.83;;;;;;;;;;5010007;28;20030;-75
2023/03/22 01:55:24;;;;;;;11.50;7.37;;;;;;;;;;5009995;28;20037;-75
2023/03/22 01:57:51;;;;;;;13.63;8.90;;;;;;;;;;5010156;28;20355;-77
2023/03/22 02:00:17;;;;;;;15.93;8.83;;;;;;;;;;4993419;28;20119;-74
2023/03/22 02:02:44;;;;;;;16.43;8.30;;;;;;;;;;5006963;28;20053;-75
2023/03/22 02:05:12;;;;;;;12.40;8.03;;;;;;;;;;5010848;28;20029;-76
2023/03/22 02:07:40;;;;;;;16.53;9.37;;;;;;;;;;5008939;28;20037;-75
2023/03/22 02:10:14;;;;;;;13.57;9.13;;;;;;;;;;5009134;28;20046;-73
2023/03/22 02:12:46;;;;;;;18.43;8.83;;;;;;;;;;4993003;28;20041;-75
2023/03/22 02:15:15;;;;;;;12.75;8.80;;;;;;;;;;4992436;28;20119;-74
2023/03/22 02:17:45;;;;;;;13.03;9.50;;;;;;;;;;4991611;28;20030;-74
2023/03/22 02:20:37;;;;;;;14.27;9.33;;;;;;;;;;5010935;28;20030;-75
2023/03/22 02:23:06;;;;;;;14.00;9.43;;;;;;;;;;4992967;28;20434;-76
2023/03/22 02:25:35;;;;;;;17.10;10.17;;;;;;;;;;5009828;28;20034;-75
2023/03/22 02:28:04;;;;;;;17.03;9.87;;;;;;;;;;5007310;28;20030;-75
2023/03/22 02:30:45;;;;;;;17.23;9.63;;;;;;;;;;5008685;28;20033;-75
2023/03/22 02:33:14;;;;;;;18.70;10.80;;;;;;;;;;4988783;28;20124;-75
2023/03/22 02:35:56;;;;;;;12.87;9.07;;;;;;;;;;4992706;28;20049;-76
2023/03/22 02:38:25;;;;;;;17.73;9.73;;;;;;;;;;4992876;28;20117;-74
2023/03/22 02:40:51;;;;;;;17.10;9.70;;;;;;;;;;4995538;28;20030;-75
2023/03/22 02:43:17;;;;;;;16.00;9.70;;;;;;;;;;4995756;28;20038;-75
2023/03/22 02:45:49;;;;;;;18.40;9.43;;;;;;;;;;5007477;28;20048;-75
2023/03/22 02:48:36;;;;;;;15.13;9.57;;;;;;;;;;4993097;28;20128;-75
2023/03/22 02:51:04;;;;;;;15.57;9.37;;;;;;;;;;4990567;28;20101;-76
2023/03/22 02:53:36;;;;;;;15.57;9.20;;;;;;;;;;4998991;28;20036;-75
2023/03/22 02:56:03;;;;;;;12.77;9.30;;;;;;;;;;5012577;28;20621;-76
2023/03/22 02:58:33;;;;;;;16.83;10.10;;;;;;;;;;4997318;28;20029;-75
2023/03/22 03:01:02;;;;;;;15.40;9.10;;;;;;;;;;4998316;28;20030;-75
2023/03/22 03:03:29;;;;;;;16.20;11.30;;;;;;;;;;4998388;28;20397;-76
2023/03/22 03:05:57;;;;;;;14.80;10.07;;;;;;;;;;4984764;28;20116;-74
2023/03/22 03:08:27;;;;;;;17.67;11.17;;;;;;;;;;5001866;28;20116;-75
2023/03/22 03:10:53;;;;;;;20.00;11.77;;;;;;;;;;5015348;28;20398;-75
2023/03/22 03:13:21;;;;;;;20.13;10.90;;;;;;;;;;4998215;28;20022;-75
2023/03/22 03:15:52;;;;;;;16.67;10.73;;;;;;;;;;4981256;28;20040;-75
2023/03/22 03:18:25;;;;;;;19.30;10.40;;;;;;;;;;4998320;28;20369;-75
2023/03/22 03:20:51;;;;;;;17.13;10.30;;;;;;;;;;4993908;28;20037;-75
2023/03/22 03:23:27;;;;;;;17.73;9.20;;;;;;;;;;4993405;28;20038;-75
2023/03/22 03:26:00;;;;;;;14.43;9.13;;;;;;;;;;5005518;28;20025;-75
2023/03/22 03:28:37;;;;;;;18.20;10.10;;;;;;;;;;4996346;28;20113;-76
2023/03/22 03:31:10;;;;;;;17.10;10.70;;;;;;;;;;4995673;28;20498;-75
2023/03/22 03:33:40;;;;;;;16.67;9.63;;;;;;;;;;5005739;28;20034;-76
2023/03/22 03:36:11;;;;;;;18.50;9.50;;;;;;;;;;5001343;28;20022;-75
2023/03/22 03:38:42;;;;;;;16.20;9.30;;;;;;;;;;5004783;28;20030;-75
2023/03/22 03:41:14;;;;;;;13.87;9.47;;;;;;;;;;4990307;28;20634;-75
2023/03/22 03:43:45;;;;;;;17.63;9.53;;;;;;;;;;5004889;28;20033;-75
2023/03/22 03:46:11;;;;;;;20.35;9.85;;;;;;;;;;4996159;28;20037;-75
2023/03/22 03:48:39;;;;;;;17.73;9.33;;;;;;;;;;4986580;28;20026;-76
2023/03/22 03:51:05;;;;;;;19.30;9.47;;;;;;;;;;4999278;28;20033;-75
2023/03/22 03:53:31;;;;;;;19.90;9.67;;;;;;;;;;4995206;28;20022;-75
2023/03/22 03:55:58;;;;;;;14.03;9.13;;;;;;;;;;4994505;28;20042;-76
2023/03/22 03:58:24;;;;;;;13.00;8.77;;;;;;;;;;5002188;28;20092;-75
2023/03/22 04:00:50;;;;;;;14.63;9.00;;;;;;;;;;4997012;28;20022;-75
2023/03/22 04:03:16;;;;;;;13.83;8.77;;;;;;;;;;4996842;28;20507;-75
2023/03/22 04:05:43;;;;;;;11.73;8.37;;;;;;;;;;5005040;28;20087;-75
2023/03/22 04:08:09;;;;;;;19.53;8.93;;;;;;;;;;5004024;28;20030;-75
2023/03/22 04:10:37;;;;;;;17.53;9.23;;;;;;;;;;4997751;28;20034;-75
2023/03/22 04:13:04;;;;;;;16.93;9.57;;;;;;;;;;5021806;28;20104;-75
2023/03/22 04:15:31;;;;;;;13.50;9.23;;;;;;;;;;5011792;28;20045;-75
2023/03/22 04:17:57;;;;;;;17.27;9.90;;;;;;;;;;5006491;28;20450;-75
2023/03/22 04:20:25;;;;;;;14.33;9.30;;;;;;;;;;5006324;28;20059;-75
2023/03/22 04:22:51;;;;;;;15.90;9.60;;;;;;;;;;4990347;28;20340;-75
2023/03/22 04:25:21;;;;;;;13.90;8.57;;;;;;;;;;5006919;28;20455;-75
2023/03/22 04:27:49;;;;;;;14.67;7.77;;;;;;;;;;4993124;28;20030;-75
2023/03/22 04:30:18;;;;;;;18.27;8.83;;;;;;;;;;5000530;28;20370;-75
2023/03/22 04:32:46;;;;;;;17.03;9.13;;;;;;;;;;4994910;28;20026;-75
2023/03/22 04:35:12;;;;;;;18.27;8.40;;;;;;;;;;4997778;28;20041;-76
2023/03/22 04:37:38;;;;;;;13.37;8.37;;;;;;;;;;5009882;28;20025;-75
2023/03/22 04:40:06;;;;;;;14.17;7.93;;;;;;;;;;5002212;28;20336;-75
2023/03/22 04:42:32;;;;;;;15.63;8.60;;;;;;;;;;4997701;28;20072;-76
2023/03/22 04:44:59;;;;;;;13.80;8.97;;;;;;;;;;5013356;28;20080;-75
2023/03/22 04:47:25;;;;;;;15.07;8.83;;;;;;;;;;5003189;28;20105;-75
2023/03/22 04:49:51;;;;;;;19.70;10.33;;;;;;;;;;5011585;28;20034;-75
2023/03/22 04:52:17;;;;;;;22.47;10.30;;;;;;;;;;5005993;28;20049;-75
2023/03/22 04:54:43;;;;;;;21.10;11.40;;;;;;;;;;5009552;28;20121;-75
2023/03/22 04:57:09;;;;;;;22.30;12.03;;;;;;;;;;5005606;28;20156;-75
2023/03/22 04:59:35;;;;;;;21.07;12.40;;;;;;;;;;4999255;28;20044;-75
2023/03/22 05:02:01;;;;;;;22.50;11.47;;;;;;;;;;5012312;28;20026;-75
2023/03/22 05:04:27;;;;;;;25.10;13.37;;;;;;;;;;4999913;28;20030;-75
2023/03/22 05:06:53;;;;;;;20.20;11.67;;;;;;;;;;4998417;28;20041;-75
2023/03/22 05:09:21;;;;;;;22.77;11.90;;;;;;;;;;5002534;28;20037;-75
2023/03/22 05:11:50;;;;;;;22.70;12.00;;;;;;;;;;4994243;28;20030;-75
2023/03/22 05:14:16;;;;;;;16.77;10.77;;;;;;;;;;5004171;28;20034;-75
2023/03/22 05:16:42;;;;;;;17.40;10.77;;;;;;;;;;4992738;28;20027;-75
2023/03/22 05:19:12;;;;;;;17.80;11.20;;;;;;;;;;4993463;28;20367;-75
2023/03/22 05:21:42;;;;;;;21.83;12.27;;;;;;;;;;5013815;28;20125;-75
2023/03/22 05:24:09;;;;;;;20.83;10.73;;;;;;;;;;5002346;28;20413;-75
2023/03/22 05:26:36;;;;;;;15.47;9.80;;;;;;;;;;4999873;28;20118;-75
2023/03/22 05:29:04;;;;;;;22.43;11.13;;;;;;;;;;5006367;28;20025;-75
2023/03/22 05:31:33;;;;;;;17.90;10.80;;;;;;;;;;5000715;28;20145;-75
2023/03/22 05:34:00;;;;;;;16.13;10.07;;;;;;;;;;4999942;28;20034;-75
2023/03/22 05:36:28;;;;;;;23.57;13.93;;;;;;;;;;4996785;28;20076;-75
2023/03/22 05:38:55;;;;;;;16.10;9.40;;;;;;;;;;4999222;28;20339;-75
2023/03/22 05:41:21;;;;;;;15.30;8.40;;;;;;;;;;5011394;28;20471;-75
2023/03/22 05:43:47;;;;;;;15.67;8.47;;;;;;;;;;4991976;28;20069;-75
2023/03/22 05:46:13;;;;;;;18.20;10.20;;;;;;;;;;4999564;28;20041;-75
2023/03/22 05:48:40;;;;;;;12.13;7.97;;;;;;;;;;4998805;28;20029;-75
2023/03/22 05:51:16;;;;;;;12.57;7.77;;;;;;;;;;4999578;28;20034;-75
2023/03/22 05:53:42;;;;;;;10.70;6.90;;;;;;;;;;5007756;28;20506;-75
2023/03/22 05:56:08;;;;;;;15.33;8.37;;;;;;;;;;4987793;28;20033;-75
2023/03/22 05:58:34;;;;;;;12.33;6.43;;;;;;;;;;5008823;28;20041;-75
2023/03/22 06:01:04;;;;;;;15.07;7.27;;;;;;;;;;4989651;28;20057;-75
2023/03/22 06:03:30;;;;;;;16.13;6.90;;;;;;;;;;5001014;28;20461;-76
2023/03/22 06:05:59;;;;;;;13.00;6.97;;;;;;;;;;4985972;28;20038;-75
2023/03/22 06:08:25;;;;;;;14.10;6.90;;;;;;;;;;5005366;28;20034;-76
2023/03/22 06:10:52;;;;;;;17.30;7.37;;;;;;;;;;4991635;28;20037;-75
2023/03/22 06:13:18;;;;;;;16.03;6.67;;;;;;;;;;4981478;28;20026;-75
2023/03/22 06:15:45;;;;;;;10.60;5.40;;;;;;;;;;4999123;28;20109;-75
2023/03/22 06:18:11;;;;;;;12.13;6.30;;;;;;;;;;4999112;28;20037;-76
2023/03/22 06:20:40;;;;;;;14.97;6.53;;;;;;;;;;5024593;28;20414;-76
2023/03/22 06:23:06;;;;;;;10.47;5.97;;;;;;;;;;4990886;28;20113;-75
2023/03/22 06:25:32;;;;;;;10.13;6.40;;;;;;;;;;5002791;28;20354;-75
2023/03/22 06:27:58;;;;;;;11.73;5.90;;;;;;;;;;4994233;28;20041;-75
2023/03/22 06:30:25;;;;;;;13.67;6.13;;;;;;;;;;5003833;28;20033;-75
2023/03/22 06:32:51;;;;;;;12.87;5.47;;;;;;;;;;5001590;28;20041;-76
2023/03/22 06:35:17;;;;;;;10.47;5.40;;;;;;;;;;5006149;28;20030;-75
2023/03/22 06:37:43;;;;;;;11.80;5.17;;;;;;;;;;4989566;28;20030;-75
2023/03/22 06:40:09;;;;;;;19.63;6.57;;;;;;;;;;5004977;28;20476;-76
2023/03/22 06:42:35;;;;;;;8.03;5.13;;;;;;;;;;5014111;28;20075;-75
2023/03/22 06:45:04;;;;;;;9.43;5.27;;;;;;;;;;5008859;28;20137;-75
2023/03/22 06:47:30;;;;;;;14.27;6.10;;;;;;;;;;4999111;28;20042;-75
2023/03/22 06:49:56;;;;;;;13.30;5.40;;;;;;;;;;4999741;28;20426;-75
2023/03/22 06:52:22;;;;;;;14.27;6.40;;;;;;;;;;4991866;28;20038;-75
2023/03/22 06:54:48;;;;;;;16.47;6.87;;;;;;;;;;5006035;28;20033;-75
2023/03/22 06:57:14;;;;;;;11.53;5.33;;;;;;;;;;5008964;28;20029;-75
2023/03/22 06:59:40;;;;;;;11.63;5.10;;;;;;;;;;4992200;28;20465;-75
2023/03/22 07:02:06;;;;;;;8.30;4.67;;;;;;;;;;4992091;28;20037;-75
2023/03/22 07:04:34;;;;;;;11.00;5.07;;;;;;;;;;5007252;28;20041;-75
2023/03/22 07:07:03;;;;;;;11.87;4.53;;;;;;;;;;5009467;28;20065;-75
2023/03/22 07:09:29;;;;;;;9.47;4.20;;;;;;;;;;5007185;28;20121;-75
2023/03/22 07:11:55;;;;;;;12.77;4.83;;;;;;;;;;4992793;28;20042;-75
2023/03/22 07:14:23;;;;;;;13.27;4.63;;;;;;;;;;4993399;28;20041;-76
2023/03/22 07:16:49;;;;;;;14.90;4.97;;;;;;;;;;4993510;28;20025;-76
2023/03/22 07:19:17;;;;;;;10.80;4.83;;;;;;;;;;4992887;28;20490;-75
2023/03/22 07:21:45;;;;;;;11.57;4.27;;;;;;;;;;5008543;28;20030;-73
2023/03/22 07:24:14;;;;;;;8.80;4.10;;;;;;;;;;4991812;28;20042;-75
2023/03/22 07:26:40;;;;;;;8.57;5.03;;;;;;;;;;4992011;28;20120;-76
2023/03/22 07:29:06;;;;;;;12.27;3.93;;;;;;;;;;4992151;28;20061;-76
2023/03/22 07:31:38;;;;;;;16.37;4.80;;;;;;;;;;5006253;28;20422;-75
2023/03/22 07:34:05;;;;;;;11.95;4.28;;;;;;;;;;4994406;28;20043;-75
2023/03/22 07:36:31;;;;;;;11.40;3.90;;;;;;;;;;5008683;28;20025;-75
2023/03/22 07:38:57;;;;;;;9.93;4.00;;;;;;;;;;5005774;28;20033;-75
2023/03/22 07:41:25;;;;;;;11.43;4.17;;;;;;;;;;4990403;28;20037;-75
2023/03/22 07:43:51;;;;;;;25.80;5.00;;;;;;;;;;4990565;28;20438;-75
2023/03/22 07:46:17;;;;;;;8.87;3.33;;;;;;;;;;5008041;28;20037;-75
2023/03/22 07:48:46;;;;;;;12.77;3.30;;;;;;;;;;5007375;28;20446;-75
2023/03/22 07:51:12;;;;;;;8.70;3.50;;;;;;;;;;4988534;28;20073;-75
2023/03/22 07:53:38;;;;;;;9.23;3.70;;;;;;;;;;5008233;28;20468;-75
2023/03/22 07:56:06;;;;;;;5.57;2.90;;;;;;;;;;5007760;28;20030;-75
2023/03/22 07:58:32;;;;;;;8.57;3.20;;;;;;;;;;4989828;28;20034;-75
2023/03/22 08:01:03;;;;;;;7.77;3.43;;;;;;;;;;4990408;28;20034;-75
2023/03/22 08:03:29;;;;;;;10.10;3.13;;;;;;;;;;5005639;28;20061;-75
2023/03/22 08:05:57;;;;;;;8.87;3.23;;;;;;;;;;4986347;28;20065;-75
2023/03/22 08:08:23;;;;;;;12.27;3.33;;;;;;;;;;5007195;28;20041;-75
2023/03/22 08:10:50;;;;;;;6.13;2.70;;;;;;;;;;5010771;28;20370;-75
2023/03/22 08:13:16;;;;;;;9.87;3.23;;;;;;;;;;4991598;28;20045;-75
2023/03/22 08:15:44;;;;;;;10.87;3.73;;;;;;;;;;5010923;28;20030;-74
2023/03/22 08:18:10;;;;;;;10.50;2.90;;;;;;;;;;5005490;28;20030;-75
2023/03/22 08:20:36;;;;;;;5.77;2.63;;;;;;;;;;5005036;28;20092;-75
2023/03/22 08:23:02;;;;;;;10.07;2.67;;;;;;;;;;4989570;28;20107;-75
2023/03/22 08:25:29;;;;;;;11.97;2.20;;;;;;;;;;5007752;28;20036;-75
2023/03/22 08:27:55;;;;;;;7.70;1.97;;;;;;;;;;5007266;28;20101;-73
2023/03/22 08:30:21;;;;;;;7.67;2.23;;;;;;;;;;5005757;28;20117;-74
2023/03/22 08:32:47;;;;;;;9.90;1.77;;;;;;;;;;4989149;28;20034;-75
2023/03/22 08:35:13;;;;;;;5.50;1.63;;;;;;;;;;4993164;28;20498;-74
2023/03/22 08:37:40;;;;;;;5.70;1.80;;;;;;;;;;5010368;28;20042;-75
2023/03/22 08:40:08;;;;;;;8.37;1.77;;;;;;;;;;4988383;28;20034;-75
2023/03/22 08:42:34;;;;;;;5.73;1.40;;;;;;;;;;5010033;28;20130;-74
2023/03/22 08:45:00;;;;;;;3.67;1.43;;;;;;;;;;5010859;28;20077;-75
2023/03/22 08:47:26;;;;;;;3.60;1.07;;;;;;;;;;5010488;28;20485;-75
2023/03/22 08:49:52;;;;;;;4.60;1.37;;;;;;;;;;4994642;28;20026;-75
2023/03/22 08:52:18;;;;;;;3.07;0.90;;;;;;;;;;4999155;28;20414;-75
2023/03/22 08:54:47;;;;;;;3.37;1.00;;;;;;;;;;4995722;28;20018;-75
2023/03/22 08:57:13;;;;;;;4.50;1.40;;;;;;;;;;5011328;28;20041;-75
2023/03/22 08:59:42;;;;;;;4.47;1.20;;;;;;;;;;5011889;28;20088;-76
2023/03/22 09:02:08;;;;;;;3.45;1.05;;;;;;;;;;5016048;28;20465;-75
2023/03/22 09:04:36;;;;;;;4.13;1.07;;;;;;;;;;4999939;28;20034;-74
2023/03/22 09:07:02;;;;;;;7.23;1.43;;;;;;;;;;4999512;28;20022;-74
2023/03/22 09:09:28;;;;;;;6.83;1.20;;;;;;;;;;4997633;28;20030;-74
2023/03/22 09:11:55;;;;;;;4.97;1.30;;;;;;;;;;5013471;28;20403;-73
2023/03/22 09:14:21;;;;;;;2.47;0.97;;;;;;;;;;4999996;28;20469;-75
2023/03/22 09:16:47;;;;;;;3.43;1.13;;;;;;;;;;5011400;28;20098;-76
2023/03/22 09:19:13;;;;;;;2.13;1.00;;;;;;;;;;5017070;28;20064;-75
2023/03/22 09:21:41;;;;;;;4.30;0.90;;;;;;;;;;5011501;28;20037;-76
2023/03/22 09:24:10;;;;;;;3.07;1.00;;;;;;;;;;5013892;28;20095;-76
2023/03/22 09:26:36;;;;;;;4.60;1.37;;;;;;;;;;5002377;28;20084;-76
2023/03/22 09:29:02;;;;;;;2.07;1.00;;;;;;;;;;5008085;28;20116;-75
2023/03/22 09:31:28;;;;;;;4.47;0.90;;;;;;;;;;4992148;28;20030;-76
2023/03/22 09:33:54;;;;;;;2.53;0.90;;;;;;;;;;5010581;28;20022;-76
2023/03/22 09:36:20;;;;;;;2.73;0.80;;;;;;;;;;4997384;28;20446;-75
2023/03/22 09:38:48;;;;;;;2.37;0.93;;;;;;;;;;4994089;28;20029;-75
2023/03/22 09:41:24;;;;;;;9.88;1.58;;;;;;;;;;5014707;28;20362;-75
2023/03/22 09:43:54;;;;;;;7.57;1.08;;;;;;;;;;4989833;28;20030;-76
2023/03/22 09:46:26;;;;;;;4.32;1.60;;;;;;;;;;5014053;28;20057;-76
2023/03/22 09:48:53;;;;;;;2.38;1.05;;;;;;;;;;5006982;28;20022;-76
2023/03/22 09:51:27;;;;;;;2.47;0.57;;;;;;;;;;5016690;28;20034;-75
2023/03/22 09:53:53;;;;;;;2.20;0.90;;;;;;;;;;5016130;28;20109;-76
2023/03/22 09:56:19;;;;;;;5.00;1.15;;;;;;;;;;4996385;28;20113;-75
2023/03/22 09:59:00;;;;;;;3.25;0.77;;;;;;;;;;4995993;28;20022;-75
2023/03/22 10:01:38;;;;;;;3.95;1.05;;;;;;;;;;5008958;28;20017;-75
2023/03/22 10:04:11;;;;;;;3.15;0.70;;;;;;;;;;5000106;28;20030;-75
2023/03/22 10:06:39;;;;;;;4.13;1.10;;;;;;;;;;5000476;28;20045;-75
2023/03/22 10:09:05;;;;;;;3.00;0.73;;;;;;;;;;5015331;28;20022;-76
2023/03/22 10:11:34;;;;;;;5.78;1.25;;;;;;;;;;5016242;28;20117;-75
2023/03/22 10:14:22;;;;;;;6.68;1.13;;;;;;;;;;5015546;28;20121;-75
2023/03/22 10:16:50;;;;;;;4.15;0.82;;;;;;;;;;5001455;28;20025;-76
2023/03/22 10:19:24;;;;;;;4.50;1.00;;;;;;;;;;5007707;28;20304;-77
2023/03/22 10:21:51;;;;;;;5.25;1.10;;;;;;;;;;4998745;28;20047;-77
2023/03/22 10:24:17;;;;;;;4.43;1.40;;;;;;;;;;4999289;28;20104;-78
2023/03/22 10:26:46;;;;;;;4.32;0.63;;;;;;;;;;4992767;28;20446;-75
2023/03/22 10:29:12;;;;;;;5.50;1.50;;;;;;;;;;5002494;28;20719;-78
2023/03/22 10:31:39;;;;;;;5.47;0.88;;;;;;;;;;5003704;28;20030;-77
2023/03/22 10:34:12;;;;;;;3.42;1.20;;;;;;;;;;4991771;28;20052;-77
2023/03/22 10:36:39;;;;;;;2.70;1.30;;;;;;;;;;5010504;28;20500;-78
2023/03/22 10:39:18;;;;;;;2.05;0.80;;;;;;;;;;4999476;28;20033;-77
2023/03/22 10:41:45;;;;;;;5.32;1.05;;;;;;;;;;5012607;28;20029;-77
2023/03/22 10:44:14;;;;;;;2.05;0.70;;;;;;;;;;4992566;28;20035;-77
2023/03/22 10:46:43;;;;;;;4.60;1.15;;;;;;;;;;4994134;28;20030;-75
2023/03/22 10:49:13;;;;;;;3.20;0.80;;;;;;;;;;5015404;28;20080;-76
2023/03/22 10:51:40;;;;;;;5.97;1.60;;;;;;;;;;5007160;28;20045;-76
2023/03/22 10:54:12;;;;;;;4.30;1.33;;;;;;;;;;5001390;28;20031;-76
2023/03/22 10:56:40;;;;;;;3.67;1.10;;;;;;;;;;5010223;28;20037;-75
2023/03/22 10:59:07;;;;;;;4.80;1.60;;;;;;;;;;5014687;28;20049;-76
2023/03/22 11:01:40;;;;;;;3.47;0.82;;;;;;;;;;4997599;28;20044;-76
2023/03/22 11:04:08;;;;;;;1.80;0.82;;;;;;;;;;4997938;28;20113;-74
2023/03/22 11:06:37;;;;;;;4.75;1.17;;;;;;;;;;4998210;28;20462;-75
2023/03/22 11:09:10;;;;;;;2.88;1.10;;;;;;;;;;5004650;28;20018;-76
2023/03/22 11:11:39;;;;;;;3.47;1.30;;;;;;;;;;4994780;28;20025;-75
2023/03/22 11:14:07;;;;;;;8.43;1.45;;;;;;;;;;4995488;28;20033;-75
2023/03/22 11:16:41;;;;;;;3.58;1.00;;;;;;;;;;5007111;28;20021;-75
2023/03/22 11:19:14;;;;;;;4.83;1.10;;;;;;;;;;5008865;28;20418;-74
2023/03/22 11:21:42;;;;;;;4.53;1.15;;;;;;;;;;5012139;28;20033;-75
2023/03/22 11:24:12;;;;;;;3.13;1.10;;;;;;;;;;4991313;28;20053;-75
2023/03/22 11:26:38;;;;;;;3.78;1.10;;;;;;;;;;5012960;28;20101;-76
2023/03/22 11:29:07;;;;;;;2.00;0.80;;;;;;;;;;5014592;28;20026;-77
2023/03/22 11:31:49;;;;;;;3.45;0.93;;;;;;;;;;5012483;28;20061;-78
2023/03/22 11:34:16;;;;;;;4.60;1.15;;;;;;;;;;5002629;28;20022;-75
2023/03/22 11:36:51;;;;;;;4.50;1.25;;;;;;;;;;4993600;28;20105;-75
2023/03/22 11:39:17;;;;;;;2.05;0.93;;;;;;;;;;5010525;28;20028;-76
2023/03/22 11:41:44;;;;;;;2.53;0.85;;;;;;;;;;4991588;28;20118;-75
2023/03/22 11:44:15;;;;;;;4.28;1.30;;;;;;;;;;5006373;28;20026;-76
2023/03/22 11:47:10;;;;;;;1.88;0.90;;;;;;;;;;5000579;28;20367;-76
2023/03/22 11:49:39;;;;;;;4.20;1.10;;;;;;;;;;5017806;28;20494;-75
2023/03/22 11:52:10;;;;;;;6.82;1.20;;;;;;;;;;5014866;28;20446;-76
2023/03/22 11:54:41;;;;;;;4.55;1.10;;;;;;;;;;4997315;28;20041;-76
2023/03/22 11:57:12;;;;;;;4.45;1.33;;;;;;;;;;4993441;28;20505;-77
2023/03/22 11:59:40;;;;;;;4.13;1.10;;;;;;;;;;4992383;28;20022;-75
2023/03/22 12:02:25;;;;;;;4.43;1.45;;;;;;;;;;4989833;28;20049;-76
2023/03/22 12:04:56;;;;;;;3.05;1.10;;;;;;;;;;4989584;28;20014;-75
2023/03/22 12:07:23;;;;;;;6.32;1.20;;;;;;;;;;4997295;28;20022;-76
2023/03/22 12:10:02;;;;;;;8.23;1.58;;;;;;;;;;5013805;28;20022;-75
2023/03/22 12:12:34;;;;;;;4.15;1.10;;;;;;;;;;5008805;28;20411;-76
2023/03/22 12:15:04;;;;;;;6.03;1.15;;;;;;;;;;4982035;28;20071;-76
2023/03/22 12:17:30;;;;;;;7.28;1.40;;;;;;;;;;5005385;28;20072;-74
2023/03/22 12:20:22;;;;;;;3.28;1.10;;;;;;;;;;5001466;28;20127;-76
2023/03/22 12:22:51;;;;;;;7.93;1.45;;;;;;;;;;4992731;28;20029;-75
2023/03/22 12:25:20;;;;;;;8.70;1.60;;;;;;;;;;5014200;28;20497;-76
2023/03/22 12:27:58;;;;;;;2.75;1.23;;;;;;;;;;4997482;28;20033;-76
2023/03/22 12:30:26;;;;;;;5.47;1.20;;;;;;;;;;5012533;28;20034;-75
2023/03/22 12:33:05;;;;;;;4.20;1.00;;;;;;;;;;4997175;28;20041;-76
2023/03/22 12:35:32;;;;;;;2.70;1.00;;;;;;;;;;5002526;28;20036;-75
2023/03/22 12:38:01;;;;;;;3.90;1.40;;;;;;;;;;4994982;28;20022;-76
2023/03/22 12:40:40;;;;;;;4.63;1.13;;;;;;;;;;5010126;28;20725;-76
2023/03/22 12:43:15;;;;;;;4.17;1.20;;;;;;;;;;4993531;28;20045;-77
2023/03/22 12:45:47;;;;;;;4.03;1.33;;;;;;;;;;4994130;28;20014;-76
2023/03/22 12:48:21;;;;;;;4.35;1.25;;;;;;;;;;5008836;28;20096;-75
2023/03/22 12:50:59;;;;;;;3.93;1.30;;;;;;;;;;4991132;28;20049;-76
2023/03/22 12:53:27;;;;;;;4.67;1.20;;;;;;;;;;4989661;28;20030;-76
2023/03/22 12:55:54;;;;;;;5.73;1.70;;;;;;;;;;5008316;28;20446;-75
2023/03/22 12:58:22;;;;;;;3.43;1.47;;;;;;;;;;4985281;28;20026;-75
2023/03/22 13:00:50;;;;;;;3.07;1.03;;;;;;;;;;5008165;28;20115;-75
2023/03/22 13:03:16;;;;;;;3.57;1.37;;;;;;;;;;5007702;28;20038;-76
2023/03/22 13:05:44;;;;;;;5.33;1.87;;;;;;;;;;4990269;28;20486;-76
2023/03/22 13:08:10;;;;;;;3.80;1.50;;;;;;;;;;5008775;28;20029;-76
2023/03/22 13:10:38;;;;;;;6.17;1.10;;;;;;;;;;4991282;28;20044;-76
2023/03/22 13:13:07;;;;;;;5.97;1.63;;;;;;;;;;4991021;28;20141;-75
2023/03/22 13:15:34;;;;;;;3.10;1.00;;;;;;;;;;4993963;28;20459;-76
2023/03/22 13:18:00;;;;;;;5.30;1.40;;;;;;;;;;5006242;28;20117;-75
2023/03/22 13:20:27;;;;;;;5.37;2.03;;;;;;;;;;5007429;28;20044;-76
2023/03/22 13:22:55;;;;;;;4.20;1.60;;;;;;;;;;5001957;28;20153;-76
2023/03/22 13:25:25;;;;;;;5.07;1.43;;;;;;;;;;5012007;28;20026;-76
2023/03/22 13:27:52;;;;;;;6.80;1.77;;;;;;;;;;4997550;28;21892;-76
2023/03/22 13:30:18;;;;;;;5.93;1.53;;;;;;;;;;5011806;28;20034;-75
2023/03/22 13:32:49;;;;;;;4.57;1.60;;;;;;;;;;4994555;28;20811;-74
2023/03/22 13:35:22;;;;;;;3.27;1.20;;;;;;;;;;4994268;28;20038;-75
2023/03/22 13:37:49;;;;;;;5.60;1.67;;;;;;;;;;4992373;28;20034;-76
2023/03/22 13:40:26;;;;;;;5.77;1.50;;;;;;;;;;4991370;28;20048;-76
2023/03/22 13:42:52;;;;;;;8.93;1.50;;;;;;;;;;4997536;28;20079;-78
2023/03/22 13:45:30;;;;;;;6.93;1.52;;;;;;;;;;4994399;28;20132;-75
2023/03/22 13:48:27;;;;;;;8.33;1.53;;;;;;;;;;4993728;28;20073;-76
2023/03/22 13:50:53;;;;;;;3.30;1.00;;;;;;;;;;4994573;28;20394;-75
2023/03/22 13:53:29;;;;;;;6.47;1.50;;;;;;;;;;4993663;28;20033;-76
2023/03/22 13:55:55;;;;;;;5.65;1.65;;;;;;;;;;5009588;28;20083;-75
2023/03/22 13:58:35;;;;;;;4.90;1.35;;;;;;;;;;4994064;28;20044;-75
2023/03/22 14:01:02;;;;;;;6.38;1.40;;;;;;;;;;4989444;28;20022;-76
2023/03/22 14:03:33;;;;;;;5.32;1.70;;;;;;;;;;5007676;28;20046;-76
2023/03/22 14:06:10;;;;;;;5.53;1.50;;;;;;;;;;5010674;28;20030;-76
2023/03/22 14:08:37;;;;;;;6.18;1.10;;;;;;;;;;5012041;28;20030;-75
2023/03/22 14:11:03;;;;;;;3.33;1.47;;;;;;;;;;4993371;28;20053;-75
2023/03/22 14:13:29;;;;;;;5.43;1.50;;;;;;;;;;5011219;28;20836;-75
2023/03/22 14:15:56;;;;;;;4.73;1.53;;;;;;;;;;5012536;28;20026;-76
2023/03/22 14:18:25;;;;;;;7.00;1.47;;;;;;;;;;5010175;28;20121;-75
2023/03/22 14:20:59;;;;;;;3.40;0.90;;;;;;;;;;5007394;28;20033;-76
2023/03/22 14:23:30;;;;;;;5.57;1.13;;;;;;;;;;4992771;28;20037;-76
2023/03/22 14:26:00;;;;;;;5.07;1.60;;;;;;;;;;5011119;28;20037;-75
2023/03/22 14:28:39;;;;;;;4.33;1.10;;;;;;;;;;4993765;28;20040;-76
2023/03/22 14:31:06;;;;;;;5.00;1.40;;;;;;;;;;5008826;28;20036;-75
2023/03/22 14:33:36;;;;;;;4.63;1.20;;;;;;;;;;5009968;28;20037;-75
2023/03/22 14:36:06;;;;;;;3.70;1.00;;;;;;;;;;4993439;28;20033;-75
2023/03/22 14:38:38;;;;;;;4.13;1.10;;;;;;;;;;4992872;28;20026;-76
2023/03/22 14:41:12;;;;;;;6.25;1.25;;;;;;;;;;4993629;28;20037;-73
2023/03/22 14:43:39;;;;;;;3.40;0.80;;;;;;;;;;5009687;28;20498;-76